Time;durP1;ratioP1;P1;durP2;ratioP2;P2;SDS_P1;SDS_P2;PMS_P1;PMS_P2;Temp;Humidity;BMP_temperature;BMP_pressure;BME280_temperature;BME280_humidity;BME280_pressure;Samples;Min_cycle;Max_cycle;Signal;HPM_P1;HPM_P2
2022/10/11 00:02:14;;;;;;;5.70;4.40;;;20.70;70.00;;;;;;5043269;28;20266;-50
2022/10/11 00:04:39;;;;;;;9.00;4.53;;;20.70;70.40;;;;;;5046507;28;20193;-49
2022/10/11 00:07:05;;;;;;;8.90;4.90;;;20.70;70.40;;;;;;5042834;28;20228;-50
2022/10/11 00:09:31;;;;;;;9.87;4.20;;;20.80;70.50;;;;;;5046075;28;20185;-49
2022/10/11 00:11:57;;;;;;;6.87;4.30;;;20.80;70.20;;;;;;5043123;28;20683;-46
2022/10/11 00:14:23;;;;;;;6.60;4.23;;;20.80;69.90;;;;;;5053544;28;20568;-47
2022/10/11 00:16:49;;;;;;;4.73;3.80;;;20.90;69.70;;;;;;5046172;28;20650;-47
2022/10/11 00:19:14;;;;;;;8.30;4.10;;;20.90;69.40;;;;;;5044559;28;20551;-50
2022/10/11 00:21:40;;;;;;;4.43;3.97;;;20.80;69.10;;;;;;5039974;28;20189;-49
2022/10/11 00:24:06;;;;;;;6.37;4.57;;;20.80;69.10;;;;;;5041230;28;20196;-52
2022/10/11 00:26:32;;;;;;;5.10;4.53;;;20.70;69.30;;;;;;5042696;28;20233;-47
2022/10/11 00:28:57;;;;;;;7.37;4.23;;;20.70;69.50;;;;;;5048041;28;20192;-47
2022/10/11 00:31:23;;;;;;;4.70;3.50;;;20.70;69.30;;;;;;5042956;28;20207;-51
2022/10/11 00:33:48;;;;;;;7.30;3.80;;;20.70;69.10;;;;;;5036205;28;20232;-47
2022/10/11 00:36:16;;;;;;;6.53;3.63;;;20.60;68.90;;;;;;5042583;28;20272;-50
2022/10/11 00:38:43;;;;;;;7.20;4.00;;;20.60;69.00;;;;;;5043148;28;20196;-48
2022/10/11 00:41:09;;;;;;;5.37;3.70;;;20.60;68.80;;;;;;5047194;28;20458;-48
2022/10/11 00:43:35;;;;;;;5.40;3.63;;;20.70;68.70;;;;;;5042924;28;20486;-51
2022/10/11 00:46:06;;;;;;;7.50;3.93;;;20.60;68.70;;;;;;5043925;28;21270;-46
2022/10/11 00:48:43;;;;;;;4.10;3.20;;;20.60;68.70;;;;;;5045597;28;20230;-48
2022/10/11 00:51:32;;;;;;;5.27;3.80;;;20.60;68.80;;;;;;5045121;28;20465;-50
2022/10/11 00:53:59;;;;;;;6.90;3.83;;;20.60;68.90;;;;;;5042343;28;20962;-49
2022/10/11 00:56:34;;;;;;;6.83;3.97;;;20.50;69.00;;;;;;5044981;28;21546;-50
2022/10/11 00:59:03;;;;;;;6.00;4.23;;;20.60;69.40;;;;;;5044910;28;20466;-48
2022/10/11 01:01:29;;;;;;;6.13;3.67;;;20.50;69.30;;;;;;5040000;28;20439;-49
2022/10/11 01:03:56;;;;;;;5.80;4.10;;;20.50;69.20;;;;;;5047300;28;20542;-49
2022/10/11 01:06:21;;;;;;;6.70;4.20;;;20.50;68.70;;;;;;5043059;28;20490;-50
2022/10/11 01:08:49;;;;;;;4.70;3.83;;;20.50;68.30;;;;;;5047206;28;20433;-47
2022/10/11 01:11:18;;;;;;;5.70;3.50;;;20.60;67.70;;;;;;5044252;28;20280;-48
2022/10/11 01:13:50;;;;;;;4.17;3.70;;;20.70;67.00;;;;;;5043193;28;20788;-49
2022/10/11 01:16:46;;;;;;;7.10;4.20;;;20.70;66.30;;;;;;5044074;28;20458;-47
2022/10/11 01:19:48;;;;;;;4.83;3.50;;;20.70;65.90;;;;;;5042458;28;20536;-46
2022/10/11 01:22:16;;;;;;;5.07;3.80;;;20.70;65.80;;;;;;5040519;28;20500;-49
2022/10/11 01:25:08;;;;;;;5.93;3.63;;;20.70;65.80;;;;;;5040460;28;20492;-47
2022/10/11 01:27:51;;;;;;;7.17;4.47;;;20.70;66.20;;;;;;5043707;28;20498;-47
2022/10/11 01:30:26;;;;;;;6.27;4.77;;;20.80;65.40;;;;;;5046237;28;20463;-50
2022/10/11 01:33:24;;;;;;;7.83;5.17;;;20.70;65.30;;;;;;5046295;28;20813;-49
2022/10/11 01:35:59;;;;;;;7.53;5.27;;;20.70;65.90;;;;;;5035184;28;21017;-50
2022/10/11 01:38:36;;;;;;;12.00;5.47;;;20.60;66.60;;;;;;5038785;28;20767;-47
2022/10/11 01:41:17;;;;;;;10.53;7.60;;;20.50;67.20;;;;;;5041585;28;20462;-48
2022/10/11 01:43:44;;;;;;;12.30;6.13;;;20.50;67.50;;;;;;5043494;28;20946;-49
2022/10/11 01:46:11;;;;;;;8.80;6.07;;;20.50;67.60;;;;;;5037096;28;20512;-49
2022/10/11 01:48:51;;;;;;;9.60;6.30;;;20.50;67.70;;;;;;5034254;28;20909;-52
2022/10/11 01:51:21;;;;;;;7.00;5.80;;;20.60;67.70;;;;;;5031976;28;20979;-48
2022/10/11 01:54:05;;;;;;;5.77;4.33;;;20.60;67.50;;;;;;5042450;28;20439;-47
2022/10/11 01:57:02;;;;;;;5.13;4.03;;;20.60;67.30;;;;;;5036514;28;20482;-47
2022/10/11 01:59:30;;;;;;;5.57;4.73;;;20.60;66.80;;;;;;5041139;28;20443;-51
2022/10/11 02:02:05;;;;;;;5.23;4.50;;;20.70;66.40;;;;;;5037956;28;20935;-47
2022/10/11 02:05:01;;;;;;;5.00;4.57;;;20.70;65.80;;;;;;5037755;28;20500;-49
2022/10/11 02:07:38;;;;;;;5.73;5.23;;;20.70;65.60;;;;;;5035720;28;20544;-46
2022/10/11 02:10:16;;;;;;;7.53;5.40;;;20.70;65.60;;;;;;5034875;28;20484;-47
2022/10/11 02:13:06;;;;;;;9.53;5.80;;;20.70;65.80;;;;;;5048616;28;20446;-46
2022/10/11 02:15:35;;;;;;;8.63;6.40;;;20.70;65.50;;;;;;5047679;28;20446;-46
2022/10/11 02:18:06;;;;;;;6.60;5.47;;;20.70;65.70;;;;;;5050530;28;20446;-46
2022/10/11 02:20:34;;;;;;;10.20;6.67;;;20.80;65.70;;;;;;5048141;28;20591;-47
2022/10/11 02:23:06;;;;;;;5.97;5.20;;;20.80;65.90;;;;;;5046410;28;20451;-46
2022/10/11 02:25:35;;;;;;;6.70;5.07;;;20.70;65.80;;;;;;5052017;28;20447;-47
2022/10/11 02:28:04;;;;;;;6.83;5.80;;;20.70;66.00;;;;;;5045627;28;20981;-47
2022/10/11 02:30:31;;;;;;;6.83;5.07;;;20.70;66.00;;;;;;5050660;28;20937;-48
2022/10/11 02:32:59;;;;;;;7.53;5.43;;;20.70;66.20;;;;;;5048518;28;20516;-47
2022/10/11 02:35:28;;;;;;;9.23;5.43;;;20.80;66.80;;;;;;5045748;28;20447;-46
2022/10/11 02:38:09;;;;;;;7.40;5.57;;;20.90;66.70;;;;;;5044355;28;21240;-50
2022/10/11 02:40:39;;;;;;;9.23;6.30;;;20.90;66.50;;;;;;5040049;28;20792;-48
2022/10/11 02:43:22;;;;;;;11.00;5.70;;;20.90;66.30;;;;;;5038902;28;20503;-48
2022/10/11 02:45:56;;;;;;;6.40;5.63;;;20.90;66.40;;;;;;5049443;28;20443;-51
2022/10/11 02:48:23;;;;;;;11.23;6.50;;;20.90;66.50;;;;;;5043145;28;20450;-48
2022/10/11 02:50:49;;;;;;;7.57;6.83;;;20.90;66.40;;;;;;5040396;28;20522;-49
2022/10/11 02:53:15;;;;;;;9.90;7.13;;;20.90;66.80;;;;;;5046787;28;20555;-49
2022/10/11 02:55:41;;;;;;;11.70;7.97;;;20.80;66.90;;;;;;5043273;28;20473;-49
2022/10/11 02:58:06;;;;;;;12.67;7.67;;;20.80;67.30;;;;;;5047419;28;20197;-50
2022/10/11 03:00:32;;;;;;;11.77;7.60;;;20.80;67.20;;;;;;5046311;28;20201;-48
2022/10/11 03:02:57;;;;;;;13.33;8.70;;;20.90;67.10;;;;;;5040341;28;20189;-49
2022/10/11 03:05:23;;;;;;;11.87;9.00;;;20.90;67.10;;;;;;5038903;28;20209;-49
2022/10/11 03:07:48;;;;;;;12.00;8.90;;;20.80;67.20;;;;;;5044828;28;20278;-49
2022/10/11 03:10:14;;;;;;;14.27;9.73;;;20.80;67.30;;;;;;5043810;28;20698;-49
2022/10/11 03:12:40;;;;;;;14.60;9.37;;;20.80;67.30;;;;;;5049333;28;20192;-48
2022/10/11 03:15:06;;;;;;;11.73;9.97;;;20.80;67.50;;;;;;5042590;28;20663;-49
2022/10/11 03:17:32;;;;;;;12.50;10.20;;;20.80;67.50;;;;;;5049180;28;20504;-49
2022/10/11 03:19:57;;;;;;;10.20;8.40;;;20.80;67.80;;;;;;5049061;28;20483;-49
2022/10/11 03:22:23;;;;;;;11.13;10.03;;;20.80;68.10;;;;;;5045682;28;20200;-49
2022/10/11 03:24:48;;;;;;;11.73;9.13;;;20.80;67.80;;;;;;5048144;28;20199;-48
2022/10/11 03:27:14;;;;;;;10.93;7.80;;;20.80;67.90;;;;;;5043390;28;20228;-47
2022/10/11 03:29:40;;;;;;;12.00;9.20;;;20.80;67.90;;;;;;5042515;28;20189;-47
2022/10/11 03:32:05;;;;;;;12.33;9.67;;;20.80;67.70;;;;;;5045232;28;20806;-47
2022/10/11 03:34:31;;;;;;;12.70;10.07;;;20.80;67.70;;;;;;5047649;28;20563;-49
2022/10/11 03:36:56;;;;;;;12.87;10.33;;;20.80;67.70;;;;;;5048099;28;20577;-47
2022/10/11 03:39:22;;;;;;;20.90;11.97;;;20.80;67.70;;;;;;5048134;28;20197;-47
2022/10/11 03:41:47;;;;;;;22.77;12.77;;;20.80;67.80;;;;;;5043982;28;20188;-47
2022/10/11 03:44:13;;;;;;;14.40;12.63;;;20.70;67.90;;;;;;5047071;28;20227;-46
2022/10/11 03:46:39;;;;;;;13.70;11.23;;;20.70;67.90;;;;;;5042557;28;20255;-47
2022/10/11 03:49:05;;;;;;;17.47;12.23;;;20.70;67.90;;;;;;5044999;28;20439;-47
2022/10/11 03:51:30;;;;;;;15.33;12.50;;;20.70;68.00;;;;;;5049452;28;20200;-47
2022/10/11 03:53:56;;;;;;;14.83;11.80;;;20.70;68.00;;;;;;5042864;28;20296;-47
2022/10/11 03:56:22;;;;;;;16.80;11.87;;;20.70;68.10;;;;;;5046149;28;20960;-46
2022/10/11 03:58:47;;;;;;;18.17;13.53;;;20.80;68.10;;;;;;5048961;28;20216;-49
2022/10/11 04:01:13;;;;;;;18.77;14.67;;;20.80;68.10;;;;;;5044028;28;20192;-50
2022/10/11 04:03:38;;;;;;;16.90;14.07;;;20.80;68.10;;;;;;5041260;28;20227;-52
2022/10/11 04:06:05;;;;;;;16.30;12.97;;;20.90;67.90;;;;;;5046475;28;20199;-51
2022/10/11 04:08:30;;;;;;;15.00;12.80;;;20.90;67.60;;;;;;5039647;28;20286;-51
2022/10/11 04:10:56;;;;;;;16.17;13.07;;;21.00;67.30;;;;;;5046225;28;20477;-52
2022/10/11 04:13:21;;;;;;;17.50;15.10;;;21.00;67.10;;;;;;5046339;28;20271;-49
2022/10/11 04:15:47;;;;;;;14.87;13.07;;;21.00;67.10;;;;;;5048846;28;20705;-51
2022/10/11 04:18:13;;;;;;;20.17;14.23;;;21.00;67.20;;;;;;5047702;28;20271;-50
2022/10/11 04:20:38;;;;;;;18.80;12.47;;;21.00;67.30;;;;;;5043961;28;20224;-52
2022/10/11 04:23:04;;;;;;;16.93;12.00;;;21.00;67.50;;;;;;5045699;28;20258;-52
2022/10/11 04:25:29;;;;;;;13.10;11.73;;;21.00;67.30;;;;;;5046504;28;20243;-52
2022/10/11 04:27:55;;;;;;;14.03;12.33;;;21.00;67.20;;;;;;5044956;28;20267;-52
2022/10/11 04:30:21;;;;;;;17.10;12.77;;;21.00;66.90;;;;;;5043972;28;20276;-51
2022/10/11 04:32:47;;;;;;;14.57;12.70;;;21.00;66.90;;;;;;5041410;28;20250;-53
2022/10/11 04:35:12;;;;;;;17.70;13.70;;;21.00;67.00;;;;;;5040935;28;20447;-51
2022/10/11 04:37:38;;;;;;;18.33;14.30;;;21.00;67.00;;;;;;5048257;28;20655;-51
2022/10/11 04:40:06;;;;;;;19.10;14.47;;;20.90;67.00;;;;;;5042381;28;20193;-51
2022/10/11 04:42:32;;;;;;;21.33;14.07;;;20.90;67.10;;;;;;5043448;28;20193;-49
2022/10/11 04:44:57;;;;;;;23.93;14.60;;;20.90;67.30;;;;;;5043735;28;20442;-51
2022/10/11 04:47:23;;;;;;;24.43;16.57;;;20.80;67.40;;;;;;5051608;28;20232;-52
2022/10/11 04:49:48;;;;;;;18.80;13.93;;;20.80;67.70;;;;;;5045786;28;20192;-48
2022/10/11 04:52:14;;;;;;;20.67;15.17;;;20.80;67.60;;;;;;5044545;28;20196;-51
2022/10/11 04:54:40;;;;;;;19.53;15.10;;;20.70;67.80;;;;;;5044887;28;20674;-49
2022/10/11 04:57:05;;;;;;;21.60;15.30;;;20.70;67.90;;;;;;5042586;28;20196;-52
2022/10/11 04:59:31;;;;;;;19.03;13.93;;;20.60;68.20;;;;;;5047574;28;20280;-49
2022/10/11 05:01:57;;;;;;;23.60;14.83;;;20.60;68.40;;;;;;5044854;28;20208;-51
2022/10/11 05:04:30;;;;;;;21.00;14.30;;;20.60;68.70;;;;;;5045639;28;20192;-52
2022/10/11 05:06:55;;;;;;;20.90;14.47;;;20.50;69.00;;;;;;5042841;28;20232;-48
2022/10/11 05:09:21;;;;;;;19.10;14.40;;;20.50;68.90;;;;;;5045733;28;20485;-48
2022/10/11 05:11:47;;;;;;;19.80;15.73;;;20.50;68.90;;;;;;5042556;28;20620;-52
2022/10/11 05:14:13;;;;;;;24.40;15.40;;;20.50;68.90;;;;;;5047930;28;20439;-49
2022/10/11 05:16:38;;;;;;;22.13;15.80;;;20.50;68.90;;;;;;5048383;28;20204;-49
2022/10/11 05:19:04;;;;;;;17.83;14.13;;;20.50;68.90;;;;;;5045827;28;20251;-49
2022/10/11 05:21:31;;;;;;;21.30;14.03;;;20.50;69.00;;;;;;5038383;28;20224;-52
2022/10/11 05:23:57;;;;;;;18.63;14.07;;;20.60;69.00;;;;;;5043195;28;20199;-48
2022/10/11 05:26:26;;;;;;;22.07;15.30;;;20.60;68.80;;;;;;5039840;28;20474;-48
2022/10/11 05:28:52;;;;;;;27.47;19.27;;;20.60;68.70;;;;;;5043260;28;20451;-52
2022/10/11 05:31:20;;;;;;;15.70;13.60;;;20.60;68.60;;;;;;5040601;28;20451;-48
2022/10/11 05:33:46;;;;;;;19.43;14.33;;;20.60;68.30;;;;;;5041093;28;20434;-48
2022/10/11 05:36:12;;;;;;;22.10;13.87;;;20.60;68.30;;;;;;5038960;28;20938;-52
2022/10/11 05:38:38;;;;;;;19.93;14.67;;;20.50;68.20;;;;;;5043126;28;20303;-48
2022/10/11 05:41:05;;;;;;;17.20;14.17;;;20.50;68.40;;;;;;5041344;28;20794;-48
2022/10/11 05:43:31;;;;;;;21.97;13.90;;;20.50;68.50;;;;;;5043186;28;20267;-49
2022/10/11 05:45:57;;;;;;;20.37;14.70;;;20.50;68.70;;;;;;5046309;28;21005;-51
2022/10/11 05:48:23;;;;;;;17.97;14.53;;;20.50;68.70;;;;;;5045428;28;20443;-52
2022/10/11 05:50:49;;;;;;;20.60;14.87;;;20.50;68.70;;;;;;5048646;28;20492;-51
2022/10/11 05:53:14;;;;;;;20.33;15.40;;;20.50;68.80;;;;;;5044863;28;20224;-53
2022/10/11 05:55:41;;;;;;;16.93;14.20;;;20.50;68.70;;;;;;5047130;28;20489;-53
2022/10/11 05:58:11;;;;;;;27.87;16.07;;;20.50;68.60;;;;;;5041741;28;20290;-52
2022/10/11 06:00:37;;;;;;;19.63;14.97;;;20.40;68.60;;;;;;5044818;28;20856;-52
2022/10/11 06:03:03;;;;;;;25.43;16.73;;;20.40;68.60;;;;;;5047305;28;20984;-51
2022/10/11 06:05:29;;;;;;;19.90;14.90;;;20.30;68.80;;;;;;5046277;28;20447;-52
2022/10/11 06:07:57;;;;;;;27.73;17.60;;;20.30;68.70;;;;;;5048136;28;20617;-52
2022/10/11 06:10:22;;;;;;;20.60;16.20;;;20.20;69.00;;;;;;5046925;28;20213;-52
2022/10/11 06:12:48;;;;;;;23.17;15.73;;;20.20;69.10;;;;;;5050371;28;20440;-52
2022/10/11 06:15:14;;;;;;;17.53;14.40;;;20.20;69.30;;;;;;5049870;28;20196;-52
2022/10/11 06:17:39;;;;;;;18.07;15.03;;;20.20;69.20;;;;;;5039105;28;20283;-51
2022/10/11 06:20:06;;;;;;;16.83;14.60;;;20.10;69.40;;;;;;5045753;28;20742;-52
2022/10/11 06:22:32;;;;;;;20.40;14.43;;;20.10;69.70;;;;;;5045566;28;20196;-50
2022/10/11 06:24:57;;;;;;;22.70;16.30;;;20.10;69.90;;;;;;5044033;28;20526;-52
2022/10/11 06:27:23;;;;;;;20.37;14.77;;;20.10;69.90;;;;;;5047808;28;20646;-49
2022/10/11 06:29:49;;;;;;;20.57;15.60;;;20.10;69.80;;;;;;5044342;28;20736;-51
2022/10/11 06:32:14;;;;;;;20.03;16.43;;;20.10;69.80;;;;;;5042411;28;20233;-52
2022/10/11 06:34:40;;;;;;;21.57;16.23;;;20.10;69.90;;;;;;5043197;28;20196;-47
2022/10/11 06:37:06;;;;;;;20.53;15.07;;;20.10;70.00;;;;;;5042385;28;20204;-51
2022/10/11 06:39:31;;;;;;;17.30;14.97;;;20.10;70.00;;;;;;5048602;28;20193;-51
2022/10/11 06:41:57;;;;;;;21.03;15.70;;;20.10;69.90;;;;;;5046976;28;20602;-50
2022/10/11 06:44:24;;;;;;;23.30;15.60;;;20.10;69.80;;;;;;5050644;28;20195;-48
2022/10/11 06:46:49;;;;;;;20.90;15.37;;;20.10;69.70;;;;;;5042465;28;20232;-48
2022/10/11 06:49:15;;;;;;;20.20;16.10;;;20.10;69.80;;;;;;5044215;28;20451;-48
2022/10/11 06:51:40;;;;;;;17.90;11.30;;;20.20;70.00;;;;;;5047428;28;20194;-51
2022/10/11 06:54:06;;;;;;;12.67;8.70;;;20.20;70.10;;;;;;5044000;28;20568;-51
2022/10/11 06:56:32;;;;;;;12.23;9.20;;;20.30;70.30;;;;;;5042444;28;20192;-47
2022/10/11 06:58:58;;;;;;;18.07;14.10;;;20.40;69.60;;;;;;5050823;28;20713;-47
2022/10/11 07:01:25;;;;;;;21.40;14.00;;;20.60;69.00;;;;;;5048461;28;20249;-52
2022/10/11 07:03:52;;;;;;;18.23;13.80;;;20.70;68.00;;;;;;5048755;28;20431;-46
2022/10/11 07:06:21;;;;;;;19.60;13.80;;;20.70;67.60;;;;;;5036027;28;20612;-49
2022/10/11 07:08:47;;;;;;;17.87;13.97;;;20.70;67.20;;;;;;5041724;28;20503;-47
2022/10/11 07:11:16;;;;;;;18.63;14.60;;;20.70;67.20;;;;;;5041277;28;20448;-49
2022/10/11 07:13:42;;;;;;;19.10;12.63;;;20.70;67.30;;;;;;5050593;28;20897;-50
2022/10/11 07:16:11;;;;;;;19.90;12.60;;;20.70;67.30;;;;;;5043602;28;20449;-46
2022/10/11 07:18:37;;;;;;;18.00;13.10;;;20.70;67.20;;;;;;5045363;28;20544;-47
2022/10/11 07:21:05;;;;;;;17.63;11.67;;;20.60;67.10;;;;;;5043033;28;20435;-48
2022/10/11 07:23:31;;;;;;;14.87;12.47;;;20.50;67.70;;;;;;5046404;28;20530;-51
2022/10/11 07:25:56;;;;;;;18.33;13.60;;;20.40;67.90;;;;;;5050419;28;20562;-50
2022/10/11 07:28:22;;;;;;;19.10;12.97;;;20.30;68.20;;;;;;5047633;28;20196;-50
2022/10/11 07:30:48;;;;;;;26.63;14.13;;;20.30;68.30;;;;;;5049364;28;20215;-47
2022/10/11 07:33:14;;;;;;;17.63;13.47;;;20.30;68.80;;;;;;5046257;28;20948;-52
2022/10/11 07:35:39;;;;;;;17.70;13.70;;;20.20;69.00;;;;;;5045172;28;20307;-49
2022/10/11 07:38:05;;;;;;;14.47;12.70;;;20.20;69.40;;;;;;5046965;28;20196;-51
2022/10/11 07:40:33;;;;;;;24.23;13.93;;;20.30;69.20;;;;;;5048163;28;20221;-49
2022/10/11 07:42:59;;;;;;;18.90;13.60;;;20.20;69.20;;;;;;5044854;28;20991;-50
2022/10/11 07:45:27;;;;;;;21.30;13.40;;;20.20;69.20;;;;;;5046876;28;20813;-52
2022/10/11 07:47:56;;;;;;;17.63;13.23;;;20.30;69.10;;;;;;5049119;28;20501;-48
2022/10/11 07:50:23;;;;;;;19.53;14.47;;;20.30;69.00;;;;;;5044698;28;20435;-47
2022/10/11 07:52:49;;;;;;;17.40;13.10;;;20.20;69.00;;;;;;5041766;28;20438;-48
2022/10/11 07:55:15;;;;;;;19.07;12.50;;;20.20;69.00;;;;;;5046935;28;20451;-47
2022/10/11 07:57:40;;;;;;;22.33;13.10;;;20.20;68.80;;;;;;5046018;28;20546;-48
2022/10/11 08:00:06;;;;;;;15.50;11.80;;;20.20;68.90;;;;;;5047301;28;20256;-48
2022/10/11 08:02:32;;;;;;;21.13;13.70;;;20.20;69.00;;;;;;5043877;28;20185;-47
2022/10/11 08:04:58;;;;;;;21.90;13.90;;;20.20;69.00;;;;;;5047030;28;20445;-51
2022/10/11 08:07:23;;;;;;;22.87;13.90;;;20.20;69.20;;;;;;5043677;28;20688;-47
2022/10/11 08:09:49;;;;;;;21.47;13.70;;;20.20;69.30;;;;;;5047230;28;20200;-50
2022/10/11 08:12:15;;;;;;;20.03;12.60;;;20.20;69.30;;;;;;5043638;28;20695;-48
2022/10/11 08:14:40;;;;;;;22.53;12.70;;;20.20;69.40;;;;;;5054431;28;20570;-47
2022/10/11 08:17:07;;;;;;;21.97;14.00;;;20.30;69.30;;;;;;5042190;28;20666;-48
2022/10/11 08:19:33;;;;;;;22.90;11.93;;;20.20;69.10;;;;;;5045352;28;20362;-51
2022/10/11 08:21:58;;;;;;;16.00;13.10;;;20.20;69.20;;;;;;5049285;28;20533;-48
2022/10/11 08:24:24;;;;;;;18.70;11.93;;;20.20;69.40;;;;;;5044610;28;20200;-45
2022/10/11 08:26:50;;;;;;;19.10;12.77;;;20.20;69.60;;;;;;5049852;28;20220;-47
2022/10/11 08:29:16;;;;;;;16.43;13.27;;;20.20;69.80;;;;;;5044229;28;20674;-49
2022/10/11 08:31:43;;;;;;;16.77;12.63;;;20.20;69.50;;;;;;5045317;28;20521;-47
2022/10/11 08:34:09;;;;;;;22.47;13.83;;;20.30;69.70;;;;;;5045685;28;20446;-49
2022/10/11 08:36:36;;;;;;;23.80;14.57;;;20.30;69.80;;;;;;5054007;28;20443;-47
2022/10/11 08:39:03;;;;;;;18.93;12.57;;;20.40;69.90;;;;;;5050125;28;20438;-48
2022/10/11 08:41:51;;;;;;;21.97;13.10;;;20.40;69.70;;;;;;5037558;28;20514;-46
2022/10/11 08:44:41;;;;;;;17.90;13.13;;;20.40;69.70;;;;;;5048437;28;20450;-46
2022/10/11 08:47:42;;;;;;;22.60;13.50;;;20.40;69.60;;;;;;5047342;28;20996;-48
2022/10/11 08:50:17;;;;;;;15.87;13.17;;;20.50;69.50;;;;;;5033433;28;20483;-48
2022/10/11 08:52:45;;;;;;;20.83;13.70;;;20.40;69.80;;;;;;5046720;28;20453;-46
2022/10/11 08:55:25;;;;;;;15.80;13.37;;;20.40;69.90;;;;;;5047692;28;20443;-47
2022/10/11 08:57:54;;;;;;;14.20;12.60;;;20.50;70.20;;;;;;5046662;28;20431;-45
2022/10/11 09:00:20;;;;;;;19.50;12.17;;;20.50;70.00;;;;;;5047976;28;20455;-51
2022/10/11 09:03:17;;;;;;;19.97;13.30;;;20.50;70.00;;;;;;5050893;28;20432;-50
2022/10/11 09:06:13;;;;;;;17.20;13.23;;;20.50;70.20;;;;;;5047825;28;20450;-50
2022/10/11 09:09:02;;;;;;;19.20;14.93;;;20.60;70.20;;;;;;5043695;28;20887;-51
2022/10/11 09:11:31;;;;;;;20.47;14.00;;;20.70;70.50;;;;;;5044588;28;20855;-52
2022/10/11 09:14:11;;;;;;;17.40;13.10;;;20.80;70.20;;;;;;5044734;28;20513;-49
2022/10/11 09:16:56;;;;;;;30.27;16.03;;;20.80;70.00;;;;;;5044441;28;20475;-49
2022/10/11 09:19:50;;;;;;;18.17;14.63;;;20.90;69.80;;;;;;5042721;28;20482;-51
2022/10/11 09:22:35;;;;;;;18.27;13.27;;;21.00;69.20;;;;;;5029511;28;20467;-50
2022/10/11 09:25:27;;;;;;;22.37;14.50;;;21.00;69.70;;;;;;5046723;28;20526;-49
2022/10/11 09:28:13;;;;;;;27.00;15.17;;;21.00;68.60;;;;;;5040567;28;20486;-48
2022/10/11 09:30:47;;;;;;;22.67;16.60;;;20.90;68.60;;;;;;5038003;28;20945;-50
2022/10/11 09:33:22;;;;;;;19.67;15.30;;;20.80;68.40;;;;;;5044551;28;20538;-51
2022/10/11 09:35:51;;;;;;;24.83;17.20;;;20.90;68.30;;;;;;5043504;28;20816;-47
2022/10/11 09:38:34;;;;;;;20.40;17.10;;;20.90;68.40;;;;;;5036691;28;20444;-46
2022/10/11 09:41:21;;;;;;;22.97;14.77;;;20.90;67.70;;;;;;5044924;28;20454;-46
2022/10/11 09:43:49;;;;;;;20.00;15.30;;;20.90;68.10;;;;;;5044240;28;20848;-50
2022/10/11 09:46:22;;;;;;;22.33;14.83;;;21.00;68.00;;;;;;5041322;28;20451;-47
2022/10/11 09:48:49;;;;;;;26.03;16.23;;;20.90;67.50;;;;;;5047560;28;20529;-49
2022/10/11 09:51:20;;;;;;;23.27;14.77;;;21.10;67.20;;;;;;5042014;28;20458;-47
2022/10/11 09:54:03;;;;;;;21.27;15.07;;;21.20;67.10;;;;;;5034965;28;20545;-46
2022/10/11 09:56:30;;;;;;;19.03;15.30;;;21.30;66.80;;;;;;5041018;28;20546;-47
2022/10/11 09:59:15;;;;;;;24.07;15.13;;;21.20;65.90;;;;;;5046077;28;20507;-47
2022/10/11 10:01:40;;;;;;;25.97;16.23;;;21.20;65.40;;;;;;5042761;28;20447;-48
2022/10/11 10:04:12;;;;;;;21.30;14.67;;;21.20;66.00;;;;;;5045691;28;20497;-50
2022/10/11 10:06:39;;;;;;;20.83;15.63;;;21.30;65.90;;;;;;5040918;28;20216;-47
2022/10/11 10:09:27;;;;;;;19.67;12.20;;;21.30;65.70;;;;;;5049543;28;20508;-46
2022/10/11 10:11:54;;;;;;;19.70;13.23;;;21.40;65.80;;;;;;5044248;28;20853;-46
2022/10/11 10:14:28;;;;;;;24.70;14.70;;;21.40;65.40;;;;;;5048778;28;20451;-47
2022/10/11 10:17:03;;;;;;;20.07;15.00;;;21.50;65.10;;;;;;5043383;28;20458;-46
2022/10/11 10:19:35;;;;;;;16.83;12.97;;;21.60;65.00;;;;;;5047929;28;21268;-47
2022/10/11 10:22:01;;;;;;;23.57;14.17;;;21.70;64.60;;;;;;5041778;28;20528;-47
2022/10/11 10:24:32;;;;;;;19.00;14.50;;;21.70;63.80;;;;;;5038351;28;20855;-52
2022/10/11 10:27:17;;;;;;;19.97;14.53;;;21.70;63.40;;;;;;5036472;28;20592;-48
2022/10/11 10:30:00;;;;;;;20.53;13.93;;;21.70;63.80;;;;;;5045528;28;21004;-47
2022/10/11 10:32:33;;;;;;;18.80;14.07;;;21.80;63.50;;;;;;5049107;28;20519;-47
2022/10/11 10:35:43;;;;;;;17.00;13.43;;;21.90;63.40;;;;;;5045849;28;20596;-50
2022/10/11 10:38:18;;;;;;;21.73;13.67;;;21.90;62.90;;;;;;5040779;28;20446;-49
2022/10/11 10:40:51;;;;;;;17.60;13.47;;;21.90;62.50;;;;;;5044143;28;20462;-48
2022/10/11 10:43:20;;;;;;;15.80;12.40;;;21.90;62.50;;;;;;5053081;28;20487;-48
2022/10/11 10:45:58;;;;;;;17.13;12.03;;;21.90;62.40;;;;;;5049003;28;20447;-49
2022/10/11 10:48:31;;;;;;;25.83;12.73;;;22.00;62.30;;;;;;5049195;28;20536;-48
2022/10/11 10:51:52;;;;;;;13.97;11.67;;;22.00;62.10;;;;;;5051719;28;20512;-49
2022/10/11 10:54:55;;;;;;;14.00;10.33;;;21.90;61.30;;;;;;5009511;28;20507;-48
2022/10/11 10:57:32;;;;;;;21.23;10.20;;;21.90;61.30;;;;;;5005164;28;20467;-47
2022/10/11 11:00:16;;;;;;;20.37;11.33;;;22.00;61.10;;;;;;5047644;28;20553;-47
2022/10/11 11:03:00;;;;;;;15.50;10.40;;;22.00;61.10;;;;;;5047997;28;20973;-51
2022/10/11 11:06:03;;;;;;;14.30;10.63;;;22.00;60.40;;;;;;5048736;28;20797;-48
2022/10/11 11:08:58;;;;;;;16.03;10.10;;;22.10;60.60;;;;;;5048130;28;20470;-47
2022/10/11 11:11:54;;;;;;;13.03;10.60;;;22.20;60.50;;;;;;5051641;28;20451;-48
2022/10/11 11:14:44;;;;;;;11.97;10.40;;;22.20;60.40;;;;;;5049446;28;20458;-51
2022/10/11 11:17:21;;;;;;;12.90;10.20;;;22.20;59.60;;;;;;5047978;28;20471;-49
2022/10/11 11:20:15;;;;;;;12.07;10.83;;;22.20;59.40;;;;;;5051828;28;20474;-48
2022/10/11 11:22:54;;;;;;;17.43;11.47;;;22.20;59.60;;;;;;5050131;28;20459;-47
2022/10/11 11:25:38;;;;;;;14.53;10.70;;;22.20;60.00;;;;;;5052338;28;20443;-47
2022/10/11 11:28:28;;;;;;;15.53;10.80;;;22.00;60.00;;;;;;5047581;28;21256;-48
2022/10/11 11:30:56;;;;;;;12.40;10.23;;;22.00;60.00;;;;;;5048783;28;20439;-47
2022/10/11 11:33:34;;;;;;;12.60;11.30;;;22.10;59.90;;;;;;5049068;28;20443;-50
2022/10/11 11:36:09;;;;;;;17.60;11.20;;;22.20;59.80;;;;;;5050129;28;20482;-47
2022/10/11 11:39:00;;;;;;;17.30;10.80;;;22.10;59.70;;;;;;5042244;28;20449;-48
2022/10/11 11:41:33;;;;;;;11.70;10.33;;;22.10;59.50;;;;;;5050338;28;20466;-47
2022/10/11 11:44:32;;;;;;;15.57;10.77;;;22.10;59.60;;;;;;5047403;28;20451;-47
2022/10/11 11:47:16;;;;;;;16.30;10.53;;;22.00;60.00;;;;;;5039888;28;20479;-50
2022/10/11 11:49:48;;;;;;;13.30;9.87;;;22.00;59.80;;;;;;5049623;28;20439;-50
2022/10/11 11:52:28;;;;;;;14.03;9.70;;;22.00;59.80;;;;;;5047760;28;20778;-48
2022/10/11 11:54:59;;;;;;;14.40;10.87;;;22.00;59.80;;;;;;5052726;28;20419;-47
2022/10/11 11:57:53;;;;;;;15.73;9.43;;;22.10;59.90;;;;;;5051359;28;21035;-45
2022/10/11 12:00:26;;;;;;;11.43;9.53;;;22.00;59.80;;;;;;5048705;28;20455;-45
2022/10/11 12:02:59;;;;;;;13.00;10.67;;;22.00;60.20;;;;;;5044591;28;20828;-48
2022/10/11 12:05:35;;;;;;;12.53;8.97;;;22.10;60.40;;;;;;5045618;28;20473;-44
2022/10/11 12:08:04;;;;;;;11.83;10.37;;;22.20;60.60;;;;;;5046807;28;20482;-45
2022/10/11 12:10:36;;;;;;;13.57;9.20;;;22.30;60.60;;;;;;5042319;28;20447;-47
2022/10/11 12:13:12;;;;;;;10.33;9.33;;;22.30;60.30;;;;;;5048451;28;20839;-45
2022/10/11 12:15:38;;;;;;;13.83;9.50;;;22.30;59.90;;;;;;5046122;28;20572;-46
2022/10/11 12:18:13;;;;;;;11.33;8.20;;;22.40;59.70;;;;;;5047948;28;20849;-45
2022/10/11 12:20:40;;;;;;;12.10;8.87;;;22.40;59.00;;;;;;5046438;28;20224;-46
2022/10/11 12:23:28;;;;;;;14.37;8.80;;;22.50;58.90;;;;;;5051518;28;20426;-46
2022/10/11 12:26:15;;;;;;;10.73;8.67;;;22.50;58.90;;;;;;5049019;28;20447;-45
2022/10/11 12:28:57;;;;;;;9.60;7.93;;;22.40;59.00;;;;;;5048298;28;20458;-45
2022/10/11 12:31:27;;;;;;;10.20;9.20;;;22.40;59.40;;;;;;5042024;28;20824;-47
2022/10/11 12:34:08;;;;;;;9.30;8.30;;;22.40;59.10;;;;;;5045448;28;20451;-47
2022/10/11 12:36:40;;;;;;;14.10;9.23;;;22.40;58.90;;;;;;5044348;28;20439;-45
2022/10/11 12:39:18;;;;;;;10.20;9.07;;;22.50;58.60;;;;;;5047503;28;20481;-47
2022/10/11 12:41:46;;;;;;;11.53;9.30;;;22.40;58.70;;;;;;5041063;28;20481;-46
2022/10/11 12:44:18;;;;;;;12.20;9.30;;;22.30;59.00;;;;;;5048082;28;20987;-46
2022/10/11 12:46:49;;;;;;;10.60;9.00;;;22.30;59.20;;;;;;5050036;28;20982;-47
2022/10/11 12:49:35;;;;;;;14.87;9.07;;;22.30;58.90;;;;;;5050280;28;20829;-48
2022/10/11 12:52:22;;;;;;;13.23;8.97;;;22.40;58.90;;;;;;5043123;28;20561;-45
2022/10/11 12:55:20;;;;;;;10.67;8.57;;;22.40;58.70;;;;;;5049923;28;20447;-46
2022/10/11 12:58:06;;;;;;;10.93;8.20;;;22.50;58.90;;;;;;5010707;28;20475;-47